sensor_id;sensor_type;location;lat;lon;timestamp;pressure;altitude;pressure_sealevel;temperature;humidity
47706;BME280;33471;52.104;1.318;2023-03-04T00:01:02;102655.64;;;7.59;42.93
47706;BME280;33471;52.104;1.318;2023-03-04T00:03:29;102655.66;;;7.14;43.09
47706;BME280;33471;52.104;1.318;2023-03-04T00:05:57;102656.18;;;8.26;41.79
47706;BME280;33471;52.104;1.318;2023-03-04T00:08:25;102661.55;;;7.85;42.22
47706;BME280;33471;52.104;1.318;2023-03-04T00:10:52;102659.62;;;7.51;42.05
47706;BME280;33471;52.104;1.318;2023-03-04T00:13:19;102657.17;;;8.02;41.98
47706;BME280;33471;52.104;1.318;2023-03-04T00:15:47;102654.25;;;8.64;41.01
47706;BME280;33471;52.104;1.318;2023-03-04T00:18:14;102655.27;;;7.60;42.14
47706;BME280;33471;52.104;1.318;2023-03-04T00:20:41;102653.81;;;8.89;40.50
47706;BME280;33471;52.104;1.318;2023-03-04T00:23:08;102653.77;;;7.37;42.40
47706;BME280;33471;52.104;1.318;2023-03-04T00:25:35;102655.22;;;7.31;43.40
47706;BME280;33471;52.104;1.318;2023-03-04T00:28:03;102652.96;;;7.25;43.68
47706;BME280;33471;52.104;1.318;2023-03-04T00:30:31;102651.83;;;7.54;42.52
47706;BME280;33471;52.104;1.318;2023-03-04T00:32:59;102649.75;;;7.65;43.01
47706;BME280;33471;52.104;1.318;2023-03-04T00:35:26;102643.34;;;7.81;42.64
47706;BME280;33471;52.104;1.318;2023-03-04T00:37:53;102643.78;;;7.05;44.15
47706;BME280;33471;52.104;1.318;2023-03-04T00:40:20;102643.93;;;7.44;43.50
47706;BME280;33471;52.104;1.318;2023-03-04T00:42:48;102641.11;;;6.60;45.08
47706;BME280;33471;52.104;1.318;2023-03-04T00:45:15;102640.69;;;7.57;43.81
47706;BME280;33471;52.104;1.318;2023-03-04T00:47:42;102637.28;;;8.12;43.08
47706;BME280;33471;52.104;1.318;2023-03-04T00:50:10;102632.80;;;8.60;42.09
47706;BME280;33471;52.104;1.318;2023-03-04T00:52:37;102634.31;;;8.29;42.87
47706;BME280;33471;52.104;1.318;2023-03-04T00:55:06;102634.44;;;7.97;43.47
47706;BME280;33471;52.104;1.318;2023-03-04T00:57:34;102636.39;;;7.57;43.90
47706;BME280;33471;52.104;1.318;2023-03-04T01:00:01;102635.15;;;8.14;43.04
47706;BME280;33471;52.104;1.318;2023-03-04T01:02:28;102634.51;;;7.95;43.39
47706;BME280;33471;52.104;1.318;2023-03-04T01:04:55;102641.22;;;7.30;44.86
47706;BME280;33471;52.104;1.318;2023-03-04T01:07:22;102636.37;;;8.03;43.13
47706;BME280;33471;52.104;1.318;2023-03-04T01:09:49;102638.66;;;7.70;44.05
47706;BME280;33471;52.104;1.318;2023-03-04T01:12:17;102634.98;;;7.88;43.36
47706;BME280;33471;52.104;1.318;2023-03-04T01:14:45;102633.80;;;7.17;44.82
47706;BME280;33471;52.104;1.318;2023-03-04T01:17:12;102632.43;;;7.40;44.28
47706;BME280;33471;52.104;1.318;2023-03-04T01:19:40;102625.38;;;7.99;42.94
47706;BME280;33471;52.104;1.318;2023-03-04T01:22:07;102629.25;;;6.57;45.66
47706;BME280;33471;52.104;1.318;2023-03-04T01:24:34;102629.61;;;7.55;44.57
47706;BME280;33471;52.104;1.318;2023-03-04T01:27:01;102624.14;;;7.91;43.56
47706;BME280;33471;52.104;1.318;2023-03-04T01:29:28;102626.30;;;7.66;43.64
47706;BME280;33471;52.104;1.318;2023-03-04T01:31:55;102622.00;;;8.02;43.03
47706;BME280;33471;52.104;1.318;2023-03-04T01:34:22;102623.21;;;7.29;44.52
47706;BME280;33471;52.104;1.318;2023-03-04T01:36:49;102623.56;;;6.89;44.96
47706;BME280;33471;52.104;1.318;2023-03-04T01:39:17;102618.97;;;7.52;43.54
47706;BME280;33471;52.104;1.318;2023-03-04T01:41:44;102615.28;;;7.52;43.80
47706;BME280;33471;52.104;1.318;2023-03-04T01:44:12;102616.12;;;7.12;44.30
47706;BME280;33471;52.104;1.318;2023-03-04T01:46:41;102612.71;;;7.71;43.62
47706;BME280;33471;52.104;1.318;2023-03-04T01:49:13;102609.36;;;7.70;43.68
47706;BME280;33471;52.104;1.318;2023-03-04T01:51:42;102605.07;;;7.18;44.34
47706;BME280;33471;52.104;1.318;2023-03-04T01:54:10;102602.79;;;6.87;45.45
47706;BME280;33471;52.104;1.318;2023-03-04T01:56:39;102598.26;;;6.96;44.83
47706;BME280;33471;52.104;1.318;2023-03-04T01:59:09;102594.18;;;7.20;44.20
47706;BME280;33471;52.104;1.318;2023-03-04T02:01:38;102596.37;;;7.18;44.21
47706;BME280;33471;52.104;1.318;2023-03-04T02:04:06;102587.61;;;8.49;42.08
47706;BME280;33471;52.104;1.318;2023-03-04T02:06:34;102591.77;;;7.93;42.45
47706;BME280;33471;52.104;1.318;2023-03-04T02:09:02;102589.80;;;8.27;41.55
47706;BME280;33471;52.104;1.318;2023-03-04T02:11:30;102586.60;;;7.43;43.01
47706;BME280;33471;52.104;1.318;2023-03-04T02:13:58;102585.31;;;7.75;42.70
47706;BME280;33471;52.104;1.318;2023-03-04T02:16:26;102583.42;;;7.91;42.59
47706;BME280;33471;52.104;1.318;2023-03-04T02:18:54;102583.94;;;8.57;41.67
47706;BME280;33471;52.104;1.318;2023-03-04T02:21:23;102584.06;;;8.40;41.53
47706;BME280;33471;52.104;1.318;2023-03-04T02:23:59;102586.28;;;7.39;43.05
47706;BME280;33471;52.104;1.318;2023-03-04T02:26:30;102583.60;;;7.51;43.27
47706;BME280;33471;52.104;1.318;2023-03-04T02:28:59;102581.10;;;8.20;42.83
47706;BME280;33471;52.104;1.318;2023-03-04T02:31:31;102582.54;;;7.60;43.68
47706;BME280;33471;52.104;1.318;2023-03-04T02:34:01;102581.75;;;8.28;42.39
47706;BME280;33471;52.104;1.318;2023-03-04T02:36:30;102588.58;;;6.80;45.20
47706;BME280;33471;52.104;1.318;2023-03-04T02:39:03;102582.34;;;6.88;45.24
47706;BME280;33471;52.104;1.318;2023-03-04T02:41:32;102583.14;;;7.04;45.79
47706;BME280;33471;52.104;1.318;2023-03-04T02:43:59;102579.98;;;7.21;44.74
47706;BME280;33471;52.104;1.318;2023-03-04T02:46:26;102576.52;;;7.79;43.80
47706;BME280;33471;52.104;1.318;2023-03-04T02:48:53;102572.37;;;7.64;43.80
47706;BME280;33471;52.104;1.318;2023-03-04T02:51:20;102569.36;;;8.19;42.90
47706;BME280;33471;52.104;1.318;2023-03-04T02:53:47;102572.50;;;6.88;45.38
47706;BME280;33471;52.104;1.318;2023-03-04T02:56:14;102569.76;;;6.95;45.76
47706;BME280;33471;52.104;1.318;2023-03-04T02:58:42;102570.66;;;6.75;45.44
47706;BME280;33471;52.104;1.318;2023-03-04T03:01:09;102568.80;;;7.40;44.39
47706;BME280;33471;52.104;1.318;2023-03-04T03:03:36;102569.10;;;7.48;44.29
47706;BME280;33471;52.104;1.318;2023-03-04T03:06:03;102566.95;;;6.76;45.02
47706;BME280;33471;52.104;1.318;2023-03-04T03:08:30;102555.75;;;7.66;43.70
47706;BME280;33471;52.104;1.318;2023-03-04T03:10:57;102555.65;;;7.80;42.22
47706;BME280;33471;52.104;1.318;2023-03-04T03:13:24;102556.32;;;7.56;43.09
47706;BME280;33471;52.104;1.318;2023-03-04T03:15:52;102554.05;;;7.92;42.96
47706;BME280;33471;52.104;1.318;2023-03-04T03:18:19;102557.50;;;6.53;45.41
47706;BME280;33471;52.104;1.318;2023-03-04T03:20:46;102554.69;;;7.66;43.49
47706;BME280;33471;52.104;1.318;2023-03-04T03:23:14;102557.81;;;6.86;45.33
47706;BME280;33471;52.104;1.318;2023-03-04T03:25:41;102557.74;;;7.23;45.13
47706;BME280;33471;52.104;1.318;2023-03-04T03:28:08;102552.37;;;8.06;42.57
47706;BME280;33471;52.104;1.318;2023-03-04T03:30:35;102548.47;;;7.87;43.14
47706;BME280;33471;52.104;1.318;2023-03-04T03:33:02;102548.61;;;7.91;43.22
47706;BME280;33471;52.104;1.318;2023-03-04T03:35:30;102547.20;;;7.77;43.10
47706;BME280;33471;52.104;1.318;2023-03-04T03:37:57;102547.05;;;7.01;45.32
47706;BME280;33471;52.104;1.318;2023-03-04T03:40:24;102545.01;;;7.70;44.35
47706;BME280;33471;52.104;1.318;2023-03-04T03:42:52;102545.35;;;7.64;43.80
47706;BME280;33471;52.104;1.318;2023-03-04T03:45:19;102549.73;;;6.92;46.79
47706;BME280;33471;52.104;1.318;2023-03-04T03:47:46;102550.61;;;7.49;45.79
47706;BME280;33471;52.104;1.318;2023-03-04T03:50:14;102551.54;;;7.25;46.48
47706;BME280;33471;52.104;1.318;2023-03-04T03:52:41;102551.04;;;6.03;49.81
47706;BME280;33471;52.104;1.318;2023-03-04T03:55:09;102551.39;;;6.23;50.05
47706;BME280;33471;52.104;1.318;2023-03-04T03:57:36;102548.64;;;6.61;49.54
47706;BME280;33471;52.104;1.318;2023-03-04T04:00:05;102548.10;;;6.71;49.32
47706;BME280;33471;52.104;1.318;2023-03-04T04:02:32;102548.91;;;7.20;48.22
47706;BME280;33471;52.104;1.318;2023-03-04T04:04:59;102546.41;;;6.47;49.53
47706;BME280;33471;52.104;1.318;2023-03-04T04:07:26;102542.23;;;7.87;46.35
47706;BME280;33471;52.104;1.318;2023-03-04T04:09:54;102542.32;;;7.65;47.15
47706;BME280;33471;52.104;1.318;2023-03-04T04:12:22;102541.71;;;8.21;46.09
47706;BME280;33471;52.104;1.318;2023-03-04T04:14:49;102541.69;;;7.51;46.67
47706;BME280;33471;52.104;1.318;2023-03-04T04:17:16;102539.41;;;7.84;46.09
47706;BME280;33471;52.104;1.318;2023-03-04T04:19:44;102539.32;;;7.49;47.29
47706;BME280;33471;52.104;1.318;2023-03-04T04:22:14;102536.00;;;7.71;46.91
47706;BME280;33471;52.104;1.318;2023-03-04T04:24:41;102539.76;;;7.26;47.71
47706;BME280;33471;52.104;1.318;2023-03-04T04:27:08;102539.98;;;8.42;45.17
47706;BME280;33471;52.104;1.318;2023-03-04T04:29:36;102540.42;;;8.54;44.78
47706;BME280;33471;52.104;1.318;2023-03-04T04:32:04;102541.06;;;8.53;44.93
47706;BME280;33471;52.104;1.318;2023-03-04T04:34:31;102542.87;;;7.75;46.24
47706;BME280;33471;52.104;1.318;2023-03-04T04:36:58;102549.29;;;6.83;47.67
47706;BME280;33471;52.104;1.318;2023-03-04T04:39:25;102541.96;;;7.12;47.01
47706;BME280;33471;52.104;1.318;2023-03-04T04:41:52;102543.21;;;8.19;44.51
47706;BME280;33471;52.104;1.318;2023-03-04T04:44:20;102545.24;;;7.08;47.22
47706;BME280;33471;52.104;1.318;2023-03-04T04:46:47;102539.93;;;7.85;44.87
47706;BME280;33471;52.104;1.318;2023-03-04T04:49:14;102539.67;;;8.45;43.74
47706;BME280;33471;52.104;1.318;2023-03-04T04:51:41;102542.79;;;8.28;44.67
47706;BME280;33471;52.104;1.318;2023-03-04T04:54:09;102541.28;;;7.99;44.92
47706;BME280;33471;52.104;1.318;2023-03-04T04:56:36;102535.09;;;7.76;44.44
47706;BME280;33471;52.104;1.318;2023-03-04T04:59:04;102544.81;;;6.86;45.78
47706;BME280;33471;52.104;1.318;2023-03-04T05:01:32;102545.15;;;7.47;44.79
47706;BME280;33471;52.104;1.318;2023-03-04T05:03:59;102539.89;;;8.37;43.28
47706;BME280;33471;52.104;1.318;2023-03-04T05:06:26;102544.76;;;8.76;42.67
47706;BME280;33471;52.104;1.318;2023-03-04T05:08:54;102543.52;;;8.33;42.81
47706;BME280;33471;52.104;1.318;2023-03-04T05:11:21;102544.58;;;7.12;44.53
47706;BME280;33471;52.104;1.318;2023-03-04T05:13:50;102544.32;;;8.15;42.45
47706;BME280;33471;52.104;1.318;2023-03-04T05:16:17;102546.00;;;8.01;43.16
47706;BME280;33471;52.104;1.318;2023-03-04T05:18:46;102548.99;;;7.40;44.81
47706;BME280;33471;52.104;1.318;2023-03-04T05:21:13;102550.50;;;6.19;47.13
47706;BME280;33471;52.104;1.318;2023-03-04T05:23:42;102555.50;;;6.23;46.12
47706;BME280;33471;52.104;1.318;2023-03-04T05:26:13;102553.12;;;6.73;45.85
47706;BME280;33471;52.104;1.318;2023-03-04T05:28:41;102551.75;;;6.19;46.76
47706;BME280;33471;52.104;1.318;2023-03-04T05:31:09;102548.37;;;7.39;44.82
47706;BME280;33471;52.104;1.318;2023-03-04T05:33:37;102552.97;;;6.52;46.53
47706;BME280;33471;52.104;1.318;2023-03-04T05:36:05;102552.70;;;6.70;46.72
47706;BME280;33471;52.104;1.318;2023-03-04T05:38:33;102555.41;;;7.32;45.55
47706;BME280;33471;52.104;1.318;2023-03-04T05:41:02;102554.31;;;6.04;48.58
47706;BME280;33471;52.104;1.318;2023-03-04T05:43:31;102550.86;;;6.22;47.10
47706;BME280;33471;52.104;1.318;2023-03-04T05:45:59;102556.04;;;5.46;48.30
47706;BME280;33471;52.104;1.318;2023-03-04T05:48:26;102558.58;;;6.37;46.74
47706;BME280;33471;52.104;1.318;2023-03-04T05:50:55;102557.28;;;7.71;44.17
47706;BME280;33471;52.104;1.318;2023-03-04T05:53:23;102555.27;;;6.74;45.92
47706;BME280;33471;52.104;1.318;2023-03-04T05:55:51;102552.55;;;7.14;45.21
47706;BME280;33471;52.104;1.318;2023-03-04T05:58:20;102552.95;;;7.44;45.09
47706;BME280;33471;52.104;1.318;2023-03-04T06:00:48;102556.25;;;7.19;44.93
47706;BME280;33471;52.104;1.318;2023-03-04T06:03:17;102554.20;;;6.60;46.18
47706;BME280;33471;52.104;1.318;2023-03-04T06:05:45;102551.75;;;7.89;43.74
47706;BME280;33471;52.104;1.318;2023-03-04T06:08:12;102561.14;;;6.88;46.23
47706;BME280;33471;52.104;1.318;2023-03-04T06:10:40;102564.63;;;6.99;45.52
47706;BME280;33471;52.104;1.318;2023-03-04T06:13:09;102569.74;;;6.17;47.62
47706;BME280;33471;52.104;1.318;2023-03-04T06:15:37;102570.77;;;6.84;46.44
47706;BME280;33471;52.104;1.318;2023-03-04T06:18:05;102566.24;;;7.34;44.83
47706;BME280;33471;52.104;1.318;2023-03-04T06:20:33;102570.80;;;6.39;47.24
47706;BME280;33471;52.104;1.318;2023-03-04T06:23:00;102568.65;;;7.50;45.11
47706;BME280;33471;52.104;1.318;2023-03-04T06:25:27;102571.00;;;7.11;45.92
47706;BME280;33471;52.104;1.318;2023-03-04T06:27:55;102567.05;;;7.73;45.15
47706;BME280;33471;52.104;1.318;2023-03-04T06:30:23;102571.88;;;6.25;47.76
47706;BME280;33471;52.104;1.318;2023-03-04T06:32:50;102575.37;;;6.93;46.31
47706;BME280;33471;52.104;1.318;2023-03-04T06:35:18;102569.61;;;7.41;45.69
47706;BME280;33471;52.104;1.318;2023-03-04T06:37:45;102574.79;;;7.63;45.67
47706;BME280;33471;52.104;1.318;2023-03-04T06:40:13;102574.33;;;7.45;45.67
47706;BME280;33471;52.104;1.318;2023-03-04T06:42:40;102575.51;;;7.16;46.14
47706;BME280;33471;52.104;1.318;2023-03-04T06:45:09;102577.87;;;7.64;45.53
47706;BME280;33471;52.104;1.318;2023-03-04T06:47:36;102579.04;;;7.93;45.75
47706;BME280;33471;52.104;1.318;2023-03-04T06:50:04;102580.07;;;8.57;44.03
47706;BME280;33471;52.104;1.318;2023-03-04T06:52:31;102579.18;;;8.06;45.08
47706;BME280;33471;52.104;1.318;2023-03-04T06:54:58;102583.45;;;6.53;48.45
47706;BME280;33471;52.104;1.318;2023-03-04T06:57:26;102587.83;;;7.70;46.40
47706;BME280;33471;52.104;1.318;2023-03-04T06:59:53;102592.68;;;7.02;47.54
47706;BME280;33471;52.104;1.318;2023-03-04T07:02:21;102590.19;;;6.42;49.64
47706;BME280;33471;52.104;1.318;2023-03-04T07:04:48;102592.06;;;5.74;49.83
47706;BME280;33471;52.104;1.318;2023-03-04T07:07:16;102591.20;;;6.12;50.10
47706;BME280;33471;52.104;1.318;2023-03-04T07:09:43;102594.11;;;5.33;52.07
47706;BME280;33471;52.104;1.318;2023-03-04T07:12:09;102593.40;;;7.25;47.73
47706;BME280;33471;52.104;1.318;2023-03-04T07:14:36;102602.27;;;4.61;54.28
47706;BME280;33471;52.104;1.318;2023-03-04T07:17:04;102595.00;;;6.38;50.23
47706;BME280;33471;52.104;1.318;2023-03-04T07:19:31;102597.60;;;6.22;51.35
47706;BME280;33471;52.104;1.318;2023-03-04T07:21:58;102600.78;;;6.64;49.37
47706;BME280;33471;52.104;1.318;2023-03-04T07:24:25;102603.26;;;6.65;50.43
47706;BME280;33471;52.104;1.318;2023-03-04T07:26:52;102607.24;;;6.07;51.55
47706;BME280;33471;52.104;1.318;2023-03-04T07:29:20;102604.13;;;6.37;50.84
47706;BME280;33471;52.104;1.318;2023-03-04T07:31:47;102611.95;;;4.85;56.07
47706;BME280;33471;52.104;1.318;2023-03-04T07:34:14;102611.84;;;5.89;53.59
47706;BME280;33471;52.104;1.318;2023-03-04T07:36:44;102617.90;;;5.77;54.16
47706;BME280;33471;52.104;1.318;2023-03-04T07:39:12;102621.19;;;4.96;57.19
47706;BME280;33471;52.104;1.318;2023-03-04T07:41:39;102618.34;;;5.79;54.68
47706;BME280;33471;52.104;1.318;2023-03-04T07:44:09;102610.45;;;6.36;54.25
47706;BME280;33471;52.104;1.318;2023-03-04T07:46:37;102620.25;;;5.20;56.56
47706;BME280;33471;52.104;1.318;2023-03-04T07:49:04;102613.39;;;5.10;57.84
47706;BME280;33471;52.104;1.318;2023-03-04T07:51:32;102610.71;;;5.86;54.80
47706;BME280;33471;52.104;1.318;2023-03-04T07:54:00;102608.79;;;6.02;54.27
47706;BME280;33471;52.104;1.318;2023-03-04T07:56:29;102608.39;;;6.41;53.65
47706;BME280;33471;52.104;1.318;2023-03-04T07:58:58;102606.48;;;5.99;54.96
47706;BME280;33471;52.104;1.318;2023-03-04T08:01:27;102610.18;;;7.74;50.87
47706;BME280;33471;52.104;1.318;2023-03-04T08:03:54;102609.47;;;6.72;52.84
47706;BME280;33471;52.104;1.318;2023-03-04T08:06:25;102611.13;;;6.06;54.37
47706;BME280;33471;52.104;1.318;2023-03-04T08:08:56;102612.79;;;6.64;51.70
47706;BME280;33471;52.104;1.318;2023-03-04T08:11:24;102615.04;;;6.59;52.01
47706;BME280;33471;52.104;1.318;2023-03-04T08:13:52;102624.65;;;6.04;53.26
47706;BME280;33471;52.104;1.318;2023-03-04T08:16:20;102617.75;;;6.06;54.30
47706;BME280;33471;52.104;1.318;2023-03-04T08:18:50;102624.16;;;6.12;52.49
47706;BME280;33471;52.104;1.318;2023-03-04T08:21:19;102630.28;;;5.06;57.12
47706;BME280;33471;52.104;1.318;2023-03-04T08:23:47;102629.64;;;5.89;54.47
47706;BME280;33471;52.104;1.318;2023-03-04T08:26:18;102628.25;;;6.05;55.03
47706;BME280;33471;52.104;1.318;2023-03-04T08:28:47;102626.39;;;6.48;53.93
47706;BME280;33471;52.104;1.318;2023-03-04T08:31:15;102622.10;;;6.39;55.55
47706;BME280;33471;52.104;1.318;2023-03-04T08:33:43;102626.29;;;6.12;56.23
47706;BME280;33471;52.104;1.318;2023-03-04T08:36:12;102625.12;;;6.46;54.51
47706;BME280;33471;52.104;1.318;2023-03-04T08:38:39;102628.46;;;5.58;58.83
47706;BME280;33471;52.104;1.318;2023-03-04T08:41:06;102625.85;;;5.70;57.17
47706;BME280;33471;52.104;1.318;2023-03-04T08:43:34;102622.96;;;5.54;57.18
47706;BME280;33471;52.104;1.318;2023-03-04T08:46:02;102622.36;;;5.55;56.63
47706;BME280;33471;52.104;1.318;2023-03-04T08:48:31;102629.02;;;5.67;56.97
47706;BME280;33471;52.104;1.318;2023-03-04T08:50:58;102626.61;;;5.61;57.67
47706;BME280;33471;52.104;1.318;2023-03-04T08:53:26;102620.53;;;6.20;55.82
47706;BME280;33471;52.104;1.318;2023-03-04T08:55:53;102620.64;;;5.80;55.49
47706;BME280;33471;52.104;1.318;2023-03-04T08:58:20;102619.52;;;7.10;53.17
47706;BME280;33471;52.104;1.318;2023-03-04T09:00:48;102619.13;;;6.96;53.69
47706;BME280;33471;52.104;1.318;2023-03-04T09:03:17;102623.15;;;6.93;53.97
47706;BME280;33471;52.104;1.318;2023-03-04T09:05:46;102623.39;;;6.77;53.07
47706;BME280;33471;52.104;1.318;2023-03-04T09:08:14;102619.48;;;7.92;50.40
47706;BME280;33471;52.104;1.318;2023-03-04T09:10:43;102627.22;;;7.16;51.46
47706;BME280;33471;52.104;1.318;2023-03-04T09:13:11;102624.04;;;8.40;48.73
47706;BME280;33471;52.104;1.318;2023-03-04T09:15:43;102625.67;;;7.54;50.04
47706;BME280;33471;52.104;1.318;2023-03-04T09:18:10;102623.28;;;6.81;52.51
47706;BME280;33471;52.104;1.318;2023-03-04T09:20:38;102626.92;;;5.80;55.48
47706;BME280;33471;52.104;1.318;2023-03-04T09:23:06;102619.54;;;6.22;54.05
47706;BME280;33471;52.104;1.318;2023-03-04T09:25:34;102624.77;;;6.73;52.71
47706;BME280;33471;52.104;1.318;2023-03-04T09:28:03;102626.12;;;6.84;51.56
47706;BME280;33471;52.104;1.318;2023-03-04T09:30:30;102623.30;;;6.65;52.46
47706;BME280;33471;52.104;1.318;2023-03-04T09:32:57;102623.33;;;6.24;52.95
47706;BME280;33471;52.104;1.318;2023-03-04T09:35:26;102621.68;;;6.63;52.03
47706;BME280;33471;52.104;1.318;2023-03-04T09:37:53;102628.90;;;5.85;52.69
47706;BME280;33471;52.104;1.318;2023-03-04T09:40:22;102627.45;;;7.26;49.91
47706;BME280;33471;52.104;1.318;2023-03-04T09:42:53;102626.40;;;5.93;51.76
47706;BME280;33471;52.104;1.318;2023-03-04T09:45:26;102630.42;;;6.09;51.41
47706;BME280;33471;52.104;1.318;2023-03-04T09:47:55;102626.20;;;6.87;49.38
47706;BME280;33471;52.104;1.318;2023-03-04T09:50:23;102627.61;;;6.37;50.86
47706;BME280;33471;52.104;1.318;2023-03-04T09:53:03;102626.40;;;6.91;48.78
47706;BME280;33471;52.104;1.318;2023-03-04T09:55:34;102629.18;;;7.70;47.79
47706;BME280;33471;52.104;1.318;2023-03-04T09:58:15;102626.69;;;8.31;46.46
47706;BME280;33471;52.104;1.318;2023-03-04T10:00:54;102622.51;;;7.70;47.92
47706;BME280;33471;52.104;1.318;2023-03-04T10:03:26;102614.96;;;8.14;46.22
47706;BME280;33471;52.104;1.318;2023-03-04T10:06:01;102610.38;;;8.30;45.44
47706;BME280;33471;52.104;1.318;2023-03-04T10:08:37;102605.13;;;8.93;44.36
47706;BME280;33471;52.104;1.318;2023-03-04T10:11:12;102598.84;;;9.18;42.68
47706;BME280;33471;52.104;1.318;2023-03-04T10:13:46;102599.56;;;9.42;41.91
47706;BME280;33471;52.104;1.318;2023-03-04T10:16:20;102597.88;;;9.24;41.98
47706;BME280;33471;52.104;1.318;2023-03-04T10:18:52;102601.82;;;8.99;41.93
47706;BME280;33471;52.104;1.318;2023-03-04T10:21:28;102602.95;;;9.16;42.83
47706;BME280;33471;52.104;1.318;2023-03-04T10:23:57;102600.43;;;8.53;44.78
47706;BME280;33471;52.104;1.318;2023-03-04T10:26:29;102600.12;;;7.88;46.07
47706;BME280;33471;52.104;1.318;2023-03-04T10:28:57;102605.13;;;7.50;46.92
47706;BME280;33471;52.104;1.318;2023-03-04T10:31:31;102606.25;;;7.59;47.41
47706;BME280;33471;52.104;1.318;2023-03-04T10:33:59;102605.25;;;7.51;47.13
47706;BME280;33471;52.104;1.318;2023-03-04T10:36:39;102602.70;;;8.01;47.27
47706;BME280;33471;52.104;1.318;2023-03-04T10:39:12;102605.76;;;7.95;47.40
47706;BME280;33471;52.104;1.318;2023-03-04T10:41:42;102613.03;;;7.11;49.96
47706;BME280;33471;52.104;1.318;2023-03-04T10:44:15;102608.11;;;7.74;48.95
47706;BME280;33471;52.104;1.318;2023-03-04T10:46:45;102612.66;;;6.90;51.20
47706;BME280;33471;52.104;1.318;2023-03-04T10:49:15;102610.08;;;7.31;49.39
47706;BME280;33471;52.104;1.318;2023-03-04T10:51:44;102606.43;;;8.09;48.01
47706;BME280;33471;52.104;1.318;2023-03-04T10:54:23;102607.25;;;8.04;48.57
47706;BME280;33471;52.104;1.318;2023-03-04T10:56:56;102608.19;;;7.58;50.38
47706;BME280;33471;52.104;1.318;2023-03-04T10:59:58;102608.44;;;8.00;49.82
47706;BME280;33471;52.104;1.318;2023-03-04T11:02:27;102608.13;;;7.78;50.81
47706;BME280;33471;52.104;1.318;2023-03-04T11:05:06;102609.20;;;7.82;50.87
47706;BME280;33471;52.104;1.318;2023-03-04T11:07:44;102605.73;;;6.91;53.22
47706;BME280;33471;52.104;1.318;2023-03-04T11:10:17;102601.50;;;8.60;50.19
47706;BME280;33471;52.104;1.318;2023-03-04T11:12:48;102599.48;;;8.13;50.69
47706;BME280;33471;52.104;1.318;2023-03-04T11:15:19;102598.24;;;8.50;49.89
47706;BME280;33471;52.104;1.318;2023-03-04T11:17:49;102599.02;;;8.55;49.83
47706;BME280;33471;52.104;1.318;2023-03-04T11:20:30;102601.23;;;9.24;48.97
47706;BME280;33471;52.104;1.318;2023-03-04T11:23:02;102594.20;;;8.40;50.91
47706;BME280;33471;52.104;1.318;2023-03-04T11:25:33;102598.58;;;8.51;51.50
47706;BME280;33471;52.104;1.318;2023-03-04T11:28:05;102602.86;;;7.90;52.47
47706;BME280;33471;52.104;1.318;2023-03-04T11:30:43;102603.48;;;6.82;54.03
47706;BME280;33471;52.104;1.318;2023-03-04T11:33:17;102602.41;;;6.95;55.07
47706;BME280;33471;52.104;1.318;2023-03-04T11:35:55;102597.67;;;7.06;53.82
47706;BME280;33471;52.104;1.318;2023-03-04T11:38:28;102597.57;;;7.02;53.39
47706;BME280;33471;52.104;1.318;2023-03-04T11:41:02;102593.27;;;7.74;52.22
47706;BME280;33471;52.104;1.318;2023-03-04T11:43:34;102587.07;;;7.93;51.53
47706;BME280;33471;52.104;1.318;2023-03-04T11:46:34;102587.26;;;7.63;50.58
47706;BME280;33471;52.104;1.318;2023-03-04T11:49:21;102585.80;;;7.28;51.81
47706;BME280;33471;52.104;1.318;2023-03-04T11:51:58;102584.17;;;6.46;56.28
47706;BME280;33471;52.104;1.318;2023-03-04T11:54:34;102580.28;;;6.40;57.63
47706;BME280;33471;52.104;1.318;2023-03-04T11:57:26;102574.16;;;5.80;60.48
47706;BME280;33471;52.104;1.318;2023-03-04T12:00:09;102574.26;;;5.85;58.29
47706;BME280;33471;52.104;1.318;2023-03-04T12:02:47;102576.36;;;5.58;61.70
47706;BME280;33471;52.104;1.318;2023-03-04T12:05:26;102585.40;;;5.02;62.20
47706;BME280;33471;52.104;1.318;2023-03-04T12:08:04;102575.65;;;5.87;61.04
47706;BME280;33471;52.104;1.318;2023-03-04T12:10:40;102567.48;;;6.33;58.96
47706;BME280;33471;52.104;1.318;2023-03-04T12:13:22;102561.46;;;4.86;63.79
47706;BME280;33471;52.104;1.318;2023-03-04T12:16:00;102547.27;;;5.35;62.57
47706;BME280;33471;52.104;1.318;2023-03-04T12:18:43;102542.74;;;5.24;65.51
47706;BME280;33471;52.104;1.318;2023-03-04T12:21:20;102540.67;;;5.60;62.42
47706;BME280;33471;52.104;1.318;2023-03-04T12:24:10;102538.60;;;6.13;61.85
47706;BME280;33471;52.104;1.318;2023-03-04T12:26:47;102542.32;;;5.96;61.63
47706;BME280;33471;52.104;1.318;2023-03-04T12:29:24;102537.31;;;6.22;60.75
47706;BME280;33471;52.104;1.318;2023-03-04T12:32:01;102527.29;;;6.09;62.49
47706;BME280;33471;52.104;1.318;2023-03-04T12:34:41;102523.10;;;6.64;59.68
47706;BME280;33471;52.104;1.318;2023-03-04T12:37:44;102516.84;;;7.81;56.84
47706;BME280;33471;52.104;1.318;2023-03-04T12:40:37;102515.52;;;6.50;59.74
47706;BME280;33471;52.104;1.318;2023-03-04T12:43:13;102511.48;;;7.05;56.70
47706;BME280;33471;52.104;1.318;2023-03-04T12:45:48;102511.17;;;6.33;58.44
47706;BME280;33471;52.104;1.318;2023-03-04T12:48:27;102509.69;;;6.54;58.40
47706;BME280;33471;52.104;1.318;2023-03-04T12:51:07;102514.90;;;5.96;59.41
47706;BME280;33471;52.104;1.318;2023-03-04T12:53:42;102513.53;;;6.31;59.14
47706;BME280;33471;52.104;1.318;2023-03-04T12:56:22;102514.00;;;6.27;59.16
47706;BME280;33471;52.104;1.318;2023-03-04T12:58:51;102510.76;;;6.41;58.17
47706;BME280;33471;52.104;1.318;2023-03-04T13:01:23;102509.71;;;6.04;58.01
47706;BME280;33471;52.104;1.318;2023-03-04T13:03:56;102499.81;;;6.96;55.27
47706;BME280;33471;52.104;1.318;2023-03-04T13:06:33;102499.95;;;7.29;53.86
47706;BME280;33471;52.104;1.318;2023-03-04T13:09:08;102488.18;;;6.72;56.74
47706;BME280;33471;52.104;1.318;2023-03-04T13:11:51;102485.60;;;8.21;52.13
47706;BME280;33471;52.104;1.318;2023-03-04T13:14:25;102482.83;;;9.15;50.42